sensor_id;sensor_type;location;lat;lon;timestamp;temperature;humidity
76537;DHT22;65381;51.254;15.592;2023-02-27T00:00:45;-2.00;82.60
76537;DHT22;65381;51.254;15.592;2023-02-27T00:03:25;-2.10;82.70
76537;DHT22;65381;51.254;15.592;2023-02-27T00:05:53;-2.10;82.70
76537;DHT22;65381;51.254;15.592;2023-02-27T00:08:23;-2.20;83.00
76537;DHT22;65381;51.254;15.592;2023-02-27T00:10:52;-2.20;83.20
76537;DHT22;65381;51.254;15.592;2023-02-27T00:13:20;-2.30;83.40
76537;DHT22;65381;51.254;15.592;2023-02-27T00:15:48;-2.40;83.40
76537;DHT22;65381;51.254;15.592;2023-02-27T00:18:16;-2.40;83.50
76537;DHT22;65381;51.254;15.592;2023-02-27T00:20:44;-2.40;83.50
76537;DHT22;65381;51.254;15.592;2023-02-27T00:23:13;-2.40;83.50
76537;DHT22;65381;51.254;15.592;2023-02-27T00:25:42;-2.40;83.70
76537;DHT22;65381;51.254;15.592;2023-02-27T00:28:11;-2.40;83.80
76537;DHT22;65381;51.254;15.592;2023-02-27T00:30:39;-2.50;83.90
76537;DHT22;65381;51.254;15.592;2023-02-27T00:33:07;-2.50;83.90
76537;DHT22;65381;51.254;15.592;2023-02-27T00:35:35;-2.50;84.00
76537;DHT22;65381;51.254;15.592;2023-02-27T00:38:04;-2.50;84.00
76537;DHT22;65381;51.254;15.592;2023-02-27T00:40:32;-2.50;84.20
76537;DHT22;65381;51.254;15.592;2023-02-27T00:43:03;-2.50;84.40
76537;DHT22;65381;51.254;15.592;2023-02-27T00:45:31;-2.40;84.50
76537;DHT22;65381;51.254;15.592;2023-02-27T00:48:00;-2.40;84.60
76537;DHT22;65381;51.254;15.592;2023-02-27T00:50:28;-2.40;84.80
76537;DHT22;65381;51.254;15.592;2023-02-27T00:52:55;-2.40;84.90
76537;DHT22;65381;51.254;15.592;2023-02-27T00:55:24;-2.30;85.10
76537;DHT22;65381;51.254;15.592;2023-02-27T00:57:53;-2.30;85.20
76537;DHT22;65381;51.254;15.592;2023-02-27T01:00:22;-2.20;85.20
76537;DHT22;65381;51.254;15.592;2023-02-27T01:02:50;-2.20;85.30
76537;DHT22;65381;51.254;15.592;2023-02-27T01:05:18;-2.10;85.30
76537;DHT22;65381;51.254;15.592;2023-02-27T01:07:46;-2.10;85.30
76537;DHT22;65381;51.254;15.592;2023-02-27T01:10:15;-2.10;85.30
76537;DHT22;65381;51.254;15.592;2023-02-27T01:12:43;-2.10;85.20
76537;DHT22;65381;51.254;15.592;2023-02-27T01:15:11;-1.90;85.20
76537;DHT22;65381;51.254;15.592;2023-02-27T01:17:41;-1.90;85.10
76537;DHT22;65381;51.254;15.592;2023-02-27T01:20:11;-1.80;85.00
76537;DHT22;65381;51.254;15.592;2023-02-27T01:22:39;-1.80;84.90
76537;DHT22;65381;51.254;15.592;2023-02-27T01:25:07;-1.70;84.90
76537;DHT22;65381;51.254;15.592;2023-02-27T01:27:39;-1.70;84.80
76537;DHT22;65381;51.254;15.592;2023-02-27T01:30:08;-1.70;84.80
76537;DHT22;65381;51.254;15.592;2023-02-27T01:32:37;-1.70;84.70
76537;DHT22;65381;51.254;15.592;2023-02-27T01:35:06;-1.70;84.80
76537;DHT22;65381;51.254;15.592;2023-02-27T01:37:34;-1.60;84.80
76537;DHT22;65381;51.254;15.592;2023-02-27T01:40:05;-1.60;84.80
76537;DHT22;65381;51.254;15.592;2023-02-27T01:42:35;-1.60;84.80
76537;DHT22;65381;51.254;15.592;2023-02-27T01:47:47;-1.60;84.70
76537;DHT22;65381;51.254;15.592;2023-02-27T01:50:17;-1.60;84.70
76537;DHT22;65381;51.254;15.592;2023-02-27T01:52:50;-1.60;84.70
76537;DHT22;65381;51.254;15.592;2023-02-27T01:55:20;-1.60;84.70
76537;DHT22;65381;51.254;15.592;2023-02-27T01:57:52;-1.50;84.60
76537;DHT22;65381;51.254;15.592;2023-02-27T02:00:21;-1.60;84.50
76537;DHT22;65381;51.254;15.592;2023-02-27T02:05:44;-1.60;84.30
76537;DHT22;65381;51.254;15.592;2023-02-27T02:08:18;-1.70;84.40
76537;DHT22;65381;51.254;15.592;2023-02-27T02:10:49;-1.70;84.40
76537;DHT22;65381;51.254;15.592;2023-02-27T02:13:19;-1.80;84.40
76537;DHT22;65381;51.254;15.592;2023-02-27T02:27:07;-1.90;84.10
76537;DHT22;65381;51.254;15.592;2023-02-27T02:47:21;-2.10;84.50
76537;DHT22;65381;51.254;15.592;2023-02-27T02:49:59;-2.10;84.60
76537;DHT22;65381;51.254;15.592;2023-02-27T02:55:57;-2.10;84.70
76537;DHT22;65381;51.254;15.592;2023-02-27T02:58:53;-2.10;84.70
76537;DHT22;65381;51.254;15.592;2023-02-27T03:01:30;-2.10;84.70
76537;DHT22;65381;51.254;15.592;2023-02-27T03:04:11;-2.10;84.60
76537;DHT22;65381;51.254;15.592;2023-02-27T03:06:45;-2.00;84.60
76537;DHT22;65381;51.254;15.592;2023-02-27T03:11:51;-2.00;84.40
76537;DHT22;65381;51.254;15.592;2023-02-27T03:14:26;-2.00;84.40
76537;DHT22;65381;51.254;15.592;2023-02-27T03:16:59;-2.00;84.50
76537;DHT22;65381;51.254;15.592;2023-02-27T03:19:55;-2.00;84.50
76537;DHT22;65381;51.254;15.592;2023-02-27T03:22:26;-1.90;84.50
76537;DHT22;65381;51.254;15.592;2023-02-27T03:24:59;-1.90;84.60
76537;DHT22;65381;51.254;15.592;2023-02-27T03:27:35;-1.90;84.50
76537;DHT22;65381;51.254;15.592;2023-02-27T03:30:15;-1.90;84.50
76537;DHT22;65381;51.254;15.592;2023-02-27T03:32:56;-1.80;84.50
76537;DHT22;65381;51.254;15.592;2023-02-27T03:35:42;-1.90;84.60
76537;DHT22;65381;51.254;15.592;2023-02-27T03:38:47;-1.80;84.70
76537;DHT22;65381;51.254;15.592;2023-02-27T03:41:33;-1.80;84.70
76537;DHT22;65381;51.254;15.592;2023-02-27T03:44:34;-1.80;84.70
76537;DHT22;65381;51.254;15.592;2023-02-27T03:47:06;-1.80;84.70
76537;DHT22;65381;51.254;15.592;2023-02-27T03:49:35;-1.70;84.70
76537;DHT22;65381;51.254;15.592;2023-02-27T03:52:04;-1.70;84.60
76537;DHT22;65381;51.254;15.592;2023-02-27T03:54:36;-1.70;84.40
76537;DHT22;65381;51.254;15.592;2023-02-27T03:57:06;-1.80;84.20
76537;DHT22;65381;51.254;15.592;2023-02-27T03:59:36;-1.80;83.90
76537;DHT22;65381;51.254;15.592;2023-02-27T04:02:04;-1.90;83.70
76537;DHT22;65381;51.254;15.592;2023-02-27T04:04:34;-2.10;83.60
76537;DHT22;65381;51.254;15.592;2023-02-27T04:21:44;-2.70;82.70
76537;DHT22;65381;51.254;15.592;2023-02-27T04:24:37;-2.80;82.40
76537;DHT22;65381;51.254;15.592;2023-02-27T04:33:09;-3.20;82.20
76537;DHT22;65381;51.254;15.592;2023-02-27T04:35:52;-3.20;82.20
76537;DHT22;65381;51.254;15.592;2023-02-27T04:38:57;-3.40;82.00
76537;DHT22;65381;51.254;15.592;2023-02-27T04:41:29;-3.50;82.00
76537;DHT22;65381;51.254;15.592;2023-02-27T04:43:59;-3.60;81.90
76537;DHT22;65381;51.254;15.592;2023-02-27T04:46:30;-3.60;82.10
76537;DHT22;65381;51.254;15.592;2023-02-27T04:49:09;-3.70;82.50
76537;DHT22;65381;51.254;15.592;2023-02-27T04:51:49;-3.70;83.00
76537;DHT22;65381;51.254;15.592;2023-02-27T04:57:27;-3.60;83.80
76537;DHT22;65381;51.254;15.592;2023-02-27T05:00:00;-3.60;83.90
76537;DHT22;65381;51.254;15.592;2023-02-27T05:02:46;-3.60;84.00
76537;DHT22;65381;51.254;15.592;2023-02-27T05:05:23;-3.60;84.30
76537;DHT22;65381;51.254;15.592;2023-02-27T05:08:08;-3.50;84.70
76537;DHT22;65381;51.254;15.592;2023-02-27T05:10:50;-3.40;84.80
76537;DHT22;65381;51.254;15.592;2023-02-27T05:13:37;-3.40;84.90
76537;DHT22;65381;51.254;15.592;2023-02-27T05:16:31;-3.30;85.00
76537;DHT22;65381;51.254;15.592;2023-02-27T05:19:03;-3.30;85.20
76537;DHT22;65381;51.254;15.592;2023-02-27T05:21:37;-3.20;85.30
76537;DHT22;65381;51.254;15.592;2023-02-27T05:29:58;-3.20;85.10
76537;DHT22;65381;51.254;15.592;2023-02-27T05:35:27;-3.10;85.20
76537;DHT22;65381;51.254;15.592;2023-02-27T05:38:14;-3.10;85.30
76537;DHT22;65381;51.254;15.592;2023-02-27T05:40:51;-3.10;85.40
76537;DHT22;65381;51.254;15.592;2023-02-27T05:43:27;-3.00;85.40
76537;DHT22;65381;51.254;15.592;2023-02-27T05:45:59;-3.00;85.40
76537;DHT22;65381;51.254;15.592;2023-02-27T05:51:36;-2.90;85.20
76537;DHT22;65381;51.254;15.592;2023-02-27T05:54:10;-2.80;85.30
76537;DHT22;65381;51.254;15.592;2023-02-27T05:56:43;-2.80;85.40
76537;DHT22;65381;51.254;15.592;2023-02-27T05:59:18;-2.70;85.30
76537;DHT22;65381;51.254;15.592;2023-02-27T06:01:48;-2.70;85.40
76537;DHT22;65381;51.254;15.592;2023-02-27T06:04:17;-2.60;85.50
76537;DHT22;65381;51.254;15.592;2023-02-27T06:06:45;-2.60;85.50
76537;DHT22;65381;51.254;15.592;2023-02-27T06:09:13;-2.50;85.60
76537;DHT22;65381;51.254;15.592;2023-02-27T06:11:43;-2.50;85.70
76537;DHT22;65381;51.254;15.592;2023-02-27T06:14:11;-2.50;85.70
76537;DHT22;65381;51.254;15.592;2023-02-27T06:16:39;-2.50;85.60
76537;DHT22;65381;51.254;15.592;2023-02-27T06:19:07;-2.50;85.70
76537;DHT22;65381;51.254;15.592;2023-02-27T06:21:35;-2.50;85.70
76537;DHT22;65381;51.254;15.592;2023-02-27T06:24:04;-2.50;85.70
76537;DHT22;65381;51.254;15.592;2023-02-27T06:26:32;-2.40;85.80
76537;DHT22;65381;51.254;15.592;2023-02-27T06:29:01;-2.40;85.90
76537;DHT22;65381;51.254;15.592;2023-02-27T06:31:28;-2.40;85.70
76537;DHT22;65381;51.254;15.592;2023-02-27T06:33:56;-2.30;85.60
76537;DHT22;65381;51.254;15.592;2023-02-27T06:36:24;-2.30;85.60
76537;DHT22;65381;51.254;15.592;2023-02-27T06:38:53;-2.30;85.60
76537;DHT22;65381;51.254;15.592;2023-02-27T06:41:21;-2.30;85.80
76537;DHT22;65381;51.254;15.592;2023-02-27T06:43:51;-2.30;85.90
76537;DHT22;65381;51.254;15.592;2023-02-27T06:46:19;-2.10;85.90
76537;DHT22;65381;51.254;15.592;2023-02-27T06:48:48;-2.10;85.80
76537;DHT22;65381;51.254;15.592;2023-02-27T06:51:16;-2.00;85.70
76537;DHT22;65381;51.254;15.592;2023-02-27T06:53:44;-1.90;85.70
76537;DHT22;65381;51.254;15.592;2023-02-27T06:56:12;-1.80;85.80
76537;DHT22;65381;51.254;15.592;2023-02-27T06:58:40;-1.70;85.80
76537;DHT22;65381;51.254;15.592;2023-02-27T07:01:08;-1.70;85.70
76537;DHT22;65381;51.254;15.592;2023-02-27T07:03:37;-1.60;85.70
76537;DHT22;65381;51.254;15.592;2023-02-27T07:06:05;-1.50;85.60
76537;DHT22;65381;51.254;15.592;2023-02-27T07:08:34;-1.50;85.50
76537;DHT22;65381;51.254;15.592;2023-02-27T07:11:02;-1.40;85.70
76537;DHT22;65381;51.254;15.592;2023-02-27T07:13:30;-1.30;85.60
76537;DHT22;65381;51.254;15.592;2023-02-27T07:15:58;-1.30;85.60
76537;DHT22;65381;51.254;15.592;2023-02-27T07:18:27;-1.10;85.70
76537;DHT22;65381;51.254;15.592;2023-02-27T07:20:55;-1.00;85.70
76537;DHT22;65381;51.254;15.592;2023-02-27T07:23:23;-0.90;85.90
76537;DHT22;65381;51.254;15.592;2023-02-27T07:25:51;-0.70;85.90
76537;DHT22;65381;51.254;15.592;2023-02-27T07:28:19;-0.50;85.70
76537;DHT22;65381;51.254;15.592;2023-02-27T07:30:47;-0.30;85.50
76537;DHT22;65381;51.254;15.592;2023-02-27T07:33:15;-0.20;85.40
76537;DHT22;65381;51.254;15.592;2023-02-27T07:35:44;-0.10;85.50
76537;DHT22;65381;51.254;15.592;2023-02-27T07:38:13;-0.10;85.50
76537;DHT22;65381;51.254;15.592;2023-02-27T07:40:40;0.00;85.70
76537;DHT22;65381;51.254;15.592;2023-02-27T07:43:09;0.30;85.80
76537;DHT22;65381;51.254;15.592;2023-02-27T07:45:37;0.50;85.50
76537;DHT22;65381;51.254;15.592;2023-02-27T07:48:05;0.60;85.00
76537;DHT22;65381;51.254;15.592;2023-02-27T07:50:33;0.60;85.00
76537;DHT22;65381;51.254;15.592;2023-02-27T07:53:01;0.60;84.90
76537;DHT22;65381;51.254;15.592;2023-02-27T07:55:30;0.60;85.30
76537;DHT22;65381;51.254;15.592;2023-02-27T07:57:58;0.80;85.40
76537;DHT22;65381;51.254;15.592;2023-02-27T08:00:26;0.90;85.20
76537;DHT22;65381;51.254;15.592;2023-02-27T08:02:54;1.00;85.10
76537;DHT22;65381;51.254;15.592;2023-02-27T08:05:23;1.20;84.90
76537;DHT22;65381;51.254;15.592;2023-02-27T08:07:51;1.30;84.60
76537;DHT22;65381;51.254;15.592;2023-02-27T08:10:19;1.40;84.60
76537;DHT22;65381;51.254;15.592;2023-02-27T08:12:47;1.40;84.40
76537;DHT22;65381;51.254;15.592;2023-02-27T08:15:15;1.40;84.60
76537;DHT22;65381;51.254;15.592;2023-02-27T08:17:45;1.40;84.00
76537;DHT22;65381;51.254;15.592;2023-02-27T08:20:14;1.20;83.80
76537;DHT22;65381;51.254;15.592;2023-02-27T08:22:42;1.00;84.00
76537;DHT22;65381;51.254;15.592;2023-02-27T08:25:10;0.90;84.30
76537;DHT22;65381;51.254;15.592;2023-02-27T08:27:39;1.00;84.90
76537;DHT22;65381;51.254;15.592;2023-02-27T08:30:09;1.00;85.00
76537;DHT22;65381;51.254;15.592;2023-02-27T08:32:38;1.10;84.80
76537;DHT22;65381;51.254;15.592;2023-02-27T08:35:06;1.10;85.10
76537;DHT22;65381;51.254;15.592;2023-02-27T08:37:34;1.40;85.30
76537;DHT22;65381;51.254;15.592;2023-02-27T08:40:03;1.50;85.10
76537;DHT22;65381;51.254;15.592;2023-02-27T08:42:34;1.70;84.80
76537;DHT22;65381;51.254;15.592;2023-02-27T08:45:02;1.90;85.10
76537;DHT22;65381;51.254;15.592;2023-02-27T08:47:31;2.10;85.20
76537;DHT22;65381;51.254;15.592;2023-02-27T08:49:58;2.40;84.90
76537;DHT22;65381;51.254;15.592;2023-02-27T08:52:27;2.60;84.60
76537;DHT22;65381;51.254;15.592;2023-02-27T08:54:55;2.80;84.10
76537;DHT22;65381;51.254;15.592;2023-02-27T08:57:23;2.80;83.70
76537;DHT22;65381;51.254;15.592;2023-02-27T08:59:51;2.80;84.10
76537;DHT22;65381;51.254;15.592;2023-02-27T09:02:19;2.90;84.40
76537;DHT22;65381;51.254;15.592;2023-02-27T09:04:50;3.10;84.30
76537;DHT22;65381;51.254;15.592;2023-02-27T09:07:19;3.10;84.60
76537;DHT22;65381;51.254;15.592;2023-02-27T09:09:47;3.30;83.80
76537;DHT22;65381;51.254;15.592;2023-02-27T09:12:16;3.30;84.10
76537;DHT22;65381;51.254;15.592;2023-02-27T09:14:44;3.50;85.40
76537;DHT22;65381;51.254;15.592;2023-02-27T09:17:12;4.20;85.80
76537;DHT22;65381;51.254;15.592;2023-02-27T09:19:40;4.90;85.90
76537;DHT22;65381;51.254;15.592;2023-02-27T09:22:09;5.40;84.50
76537;DHT22;65381;51.254;15.592;2023-02-27T09:24:37;6.00;85.00
76537;DHT22;65381;51.254;15.592;2023-02-27T09:27:05;7.00;84.60
76537;DHT22;65381;51.254;15.592;2023-02-27T09:29:33;7.50;83.00
76537;DHT22;65381;51.254;15.592;2023-02-27T09:32:01;7.70;82.20
76537;DHT22;65381;51.254;15.592;2023-02-27T09:34:29;7.80;81.60
76537;DHT22;65381;51.254;15.592;2023-02-27T09:36:59;7.80;80.40
76537;DHT22;65381;51.254;15.592;2023-02-27T09:39:27;7.40;80.00
76537;DHT22;65381;51.254;15.592;2023-02-27T09:45:31;7.30;80.90
76537;DHT22;65381;51.254;15.592;2023-02-27T09:50:47;7.20;80.70
76537;DHT22;65381;51.254;15.592;2023-02-27T09:55:59;7.50;80.70
76537;DHT22;65381;51.254;15.592;2023-02-27T09:59:12;7.50;79.70
76537;DHT22;65381;51.254;15.592;2023-02-27T10:01:50;7.30;80.40
76537;DHT22;65381;51.254;15.592;2023-02-27T10:10:26;7.30;80.60
76537;DHT22;65381;51.254;15.592;2023-02-27T10:16:02;7.40;81.00
76537;DHT22;65381;51.254;15.592;2023-02-27T10:21:17;7.70;81.80
76537;DHT22;65381;51.254;15.592;2023-02-27T10:24:06;8.00;80.80
76537;DHT22;65381;51.254;15.592;2023-02-27T10:26:40;8.00;79.70
76537;DHT22;65381;51.254;15.592;2023-02-27T10:29:30;7.90;80.10
76537;DHT22;65381;51.254;15.592;2023-02-27T10:32:13;8.20;80.30
76537;DHT22;65381;51.254;15.592;2023-02-27T10:34:51;8.70;80.00
76537;DHT22;65381;51.254;15.592;2023-02-27T10:37:23;9.00;79.80
76537;DHT22;65381;51.254;15.592;2023-02-27T10:39:56;9.00;78.20
76537;DHT22;65381;51.254;15.592;2023-02-27T10:42:29;8.50;78.80
76537;DHT22;65381;51.254;15.592;2023-02-27T10:44:58;8.10;78.40
76537;DHT22;65381;51.254;15.592;2023-02-27T10:47:26;7.60;78.70
76537;DHT22;65381;51.254;15.592;2023-02-27T10:49:54;7.20;79.70
76537;DHT22;65381;51.254;15.592;2023-02-27T10:52:23;7.20;80.90
76537;DHT22;65381;51.254;15.592;2023-02-27T10:54:51;7.20;80.90
76537;DHT22;65381;51.254;15.592;2023-02-27T10:57:27;7.20;81.00
76537;DHT22;65381;51.254;15.592;2023-02-27T10:59:59;7.20;80.50
76537;DHT22;65381;51.254;15.592;2023-02-27T11:02:37;6.90;80.90
76537;DHT22;65381;51.254;15.592;2023-02-27T11:08:27;6.70;81.40
76537;DHT22;65381;51.254;15.592;2023-02-27T11:11:10;6.70;81.60
76537;DHT22;65381;51.254;15.592;2023-02-27T11:13:41;6.90;82.50
76537;DHT22;65381;51.254;15.592;2023-02-27T11:16:17;7.40;83.30
76537;DHT22;65381;51.254;15.592;2023-02-27T11:18:50;7.90;83.00
76537;DHT22;65381;51.254;15.592;2023-02-27T11:21:22;8.50;82.60
76537;DHT22;65381;51.254;15.592;2023-02-27T11:26:28;9.00;79.90
76537;DHT22;65381;51.254;15.592;2023-02-27T11:29:11;9.00;79.50
76537;DHT22;65381;51.254;15.592;2023-02-27T11:31:49;8.60;77.70
76537;DHT22;65381;51.254;15.592;2023-02-27T11:36:54;8.70;79.80
76537;DHT22;65381;51.254;15.592;2023-02-27T11:42:26;8.60;78.10
76537;DHT22;65381;51.254;15.592;2023-02-27T11:45:02;8.40;79.30
76537;DHT22;65381;51.254;15.592;2023-02-27T11:47:35;8.60;79.80
76537;DHT22;65381;51.254;15.592;2023-02-27T11:55:32;9.40;80.70
76537;DHT22;65381;51.254;15.592;2023-02-27T11:58:08;10.10;80.20
76537;DHT22;65381;51.254;15.592;2023-02-27T12:00:43;9.80;77.40
76537;DHT22;65381;51.254;15.592;2023-02-27T12:05:57;9.50;80.20
76537;DHT22;65381;51.254;15.592;2023-02-27T12:11:34;9.50;79.00
76537;DHT22;65381;51.254;15.592;2023-02-27T12:14:20;10.40;81.10
76537;DHT22;65381;51.254;15.592;2023-02-27T12:16:55;11.00;79.10
76537;DHT22;65381;51.254;15.592;2023-02-27T12:19:41;10.90;77.70
76537;DHT22;65381;51.254;15.592;2023-02-27T12:22:19;10.30;76.90
76537;DHT22;65381;51.254;15.592;2023-02-27T12:24:53;9.40;75.50
76537;DHT22;65381;51.254;15.592;2023-02-27T12:27:32;8.30;74.50
76537;DHT22;65381;51.254;15.592;2023-02-27T12:30:26;6.90;73.60
76537;DHT22;65381;51.254;15.592;2023-02-27T12:33:19;5.60;76.40
76537;DHT22;65381;51.254;15.592;2023-02-27T12:35:53;4.70;77.70
76537;DHT22;65381;51.254;15.592;2023-02-27T12:38:23;4.20;79.80
76537;DHT22;65381;51.254;15.592;2023-02-27T13:01:14;3.60;77.10
76537;DHT22;65381;51.254;15.592;2023-02-27T13:06:06;2.60;79.80
76537;DHT22;65381;51.254;15.592;2023-02-27T13:09:13;2.50;80.70
76537;DHT22;65381;51.254;15.592;2023-02-27T13:15:14;3.00;81.60
76537;DHT22;65381;51.254;15.592;2023-02-27T13:17:45;3.20;81.20
76537;DHT22;65381;51.254;15.592;2023-02-27T13:23:07;3.40;81.80
76537;DHT22;65381;51.254;15.592;2023-02-27T13:25:39;3.60;82.20
76537;DHT22;65381;51.254;15.592;2023-02-27T13:28:14;3.90;82.10
76537;DHT22;65381;51.254;15.592;2023-02-27T13:31:08;3.90;81.50
76537;DHT22;65381;51.254;15.592;2023-02-27T13:34:21;3.90;82.00
76537;DHT22;65381;51.254;15.592;2023-02-27T13:37:04;4.00;82.10
76537;DHT22;65381;51.254;15.592;2023-02-27T13:42:48;4.30;83.10
76537;DHT22;65381;51.254;15.592;2023-02-27T13:50:00;6.60;88.10
76537;DHT22;65381;51.254;15.592;2023-02-27T13:52:33;8.20;88.30
76537;DHT22;65381;51.254;15.592;2023-02-27T13:55:06;9.70;85.80
76537;DHT22;65381;51.254;15.592;2023-02-27T13:57:50;10.00;80.50
76537;DHT22;65381;51.254;15.592;2023-02-27T14:00:22;9.80;78.60
76537;DHT22;65381;51.254;15.592;2023-02-27T14:03:08;9.40;77.20
76537;DHT22;65381;51.254;15.592;2023-02-27T14:05:46;8.90;76.50
76537;DHT22;65381;51.254;15.592;2023-02-27T14:10:56;7.20;76.30
76537;DHT22;65381;51.254;15.592;2023-02-27T14:24:34;4.30;80.00
76537;DHT22;65381;51.254;15.592;2023-02-27T14:27:23;4.10;80.60
76537;DHT22;65381;51.254;15.592;2023-02-27T14:29:55;4.00;80.70
76537;DHT22;65381;51.254;15.592;2023-02-27T14:32:28;3.80;80.90
76537;DHT22;65381;51.254;15.592;2023-02-27T14:34:58;3.70;81.10
76537;DHT22;65381;51.254;15.592;2023-02-27T14:37:27;3.50;81.20
76537;DHT22;65381;51.254;15.592;2023-02-27T14:39:58;3.50;81.70
76537;DHT22;65381;51.254;15.592;2023-02-27T14:42:44;3.50;81.90
76537;DHT22;65381;51.254;15.592;2023-02-27T14:45:20;3.60;82.60
76537;DHT22;65381;51.254;15.592;2023-02-27T14:47:52;3.80;82.50
76537;DHT22;65381;51.254;15.592;2023-02-27T14:50:35;3.90;82.20
76537;DHT22;65381;51.254;15.592;2023-02-27T14:53:05;4.00;82.00
76537;DHT22;65381;51.254;15.592;2023-02-27T14:55:35;4.10;81.90
76537;DHT22;65381;51.254;15.592;2023-02-27T14:58:16;4.20;81.90
76537;DHT22;65381;51.254;15.592;2023-02-27T15:03:35;4.30;81.80
76537;DHT22;65381;51.254;15.592;2023-02-27T15:06:21;4.20;83.50
76537;DHT22;65381;51.254;15.592;2023-02-27T15:08:53;4.50;84.80
76537;DHT22;65381;51.254;15.592;2023-02-27T15:11:24;4.70;84.40
76537;DHT22;65381;51.254;15.592;2023-02-27T15:14:01;4.80;83.20
76537;DHT22;65381;51.254;15.592;2023-02-27T15:16:39;4.80;82.00
76537;DHT22;65381;51.254;15.592;2023-02-27T15:19:20;4.50;80.80
76537;DHT22;65381;51.254;15.592;2023-02-27T15:21:59;4.10;80.80
76537;DHT22;65381;51.254;15.592;2023-02-27T15:24:33;3.90;81.10
76537;DHT22;65381;51.254;15.592;2023-02-27T15:27:21;3.70;81.20
76537;DHT22;65381;51.254;15.592;2023-02-27T15:29:55;3.50;81.10
76537;DHT22;65381;51.254;15.592;2023-02-27T15:32:35;3.30;80.70
76537;DHT22;65381;51.254;15.592;2023-02-27T15:35:30;3.00;79.40
76537;DHT22;65381;51.254;15.592;2023-02-27T15:37:59;2.70;79.90
76537;DHT22;65381;51.254;15.592;2023-02-27T15:40:31;2.50;79.70
76537;DHT22;65381;51.254;15.592;2023-02-27T15:42:59;2.30;79.70
76537;DHT22;65381;51.254;15.592;2023-02-27T15:45:33;2.20;80.20
76537;DHT22;65381;51.254;15.592;2023-02-27T15:48:03;2.20;80.30
76537;DHT22;65381;51.254;15.592;2023-02-27T15:50:41;2.10;80.30
76537;DHT22;65381;51.254;15.592;2023-02-27T15:53:29;2.20;80.50
76537;DHT22;65381;51.254;15.592;2023-02-27T15:56:03;2.20;80.50
76537;DHT22;65381;51.254;15.592;2023-02-27T15:58:33;2.10;80.40
76537;DHT22;65381;51.254;15.592;2023-02-27T16:01:07;2.10;80.50
76537;DHT22;65381;51.254;15.592;2023-02-27T16:03:44;2.00;79.80
76537;DHT22;65381;51.254;15.592;2023-02-27T16:06:19;1.90;80.00
76537;DHT22;65381;51.254;15.592;2023-02-27T16:08:54;1.80;80.00
76537;DHT22;65381;51.254;15.592;2023-02-27T16:11:26;1.70;80.00
76537;DHT22;65381;51.254;15.592;2023-02-27T16:13:55;1.60;80.20
76537;DHT22;65381;51.254;15.592;2023-02-27T16:16:33;1.60;80.30
76537;DHT22;65381;51.254;15.592;2023-02-27T16:19:29;1.50;80.40
76537;DHT22;65381;51.254;15.592;2023-02-27T16:22:18;1.50;80.40
76537;DHT22;65381;51.254;15.592;2023-02-27T16:24:46;1.50;80.40
76537;DHT22;65381;51.254;15.592;2023-02-27T16:27:28;1.40;80.50
76537;DHT22;65381;51.254;15.592;2023-02-27T16:29:58;1.40;80.50
76537;DHT22;65381;51.254;15.592;2023-02-27T16:32:35;1.40;80.60
76537;DHT22;65381;51.254;15.592;2023-02-27T16:35:13;1.40;80.50
76537;DHT22;65381;51.254;15.592;2023-02-27T16:37:44;1.40;80.50
76537;DHT22;65381;51.254;15.592;2023-02-27T16:40:19;1.40;80.50
76537;DHT22;65381;51.254;15.592;2023-02-27T16:42:50;1.40;80.60
76537;DHT22;65381;51.254;15.592;2023-02-27T16:45:24;1.40;80.70
76537;DHT22;65381;51.254;15.592;2023-02-27T16:47:56;1.30;80.70
76537;DHT22;65381;51.254;15.592;2023-02-27T16:50:33;1.20;80.70
76537;DHT22;65381;51.254;15.592;2023-02-27T16:53:03;1.30;80.70
76537;DHT22;65381;51.254;15.592;2023-02-27T16:55:32;1.30;80.70
76537;DHT22;65381;51.254;15.592;2023-02-27T16:58:01;1.30;80.70
76537;DHT22;65381;51.254;15.592;2023-02-27T17:00:29;1.20;80.70
76537;DHT22;65381;51.254;15.592;2023-02-27T17:02:57;1.20;80.70
76537;DHT22;65381;51.254;15.592;2023-02-27T17:05:26;1.10;80.70
76537;DHT22;65381;51.254;15.592;2023-02-27T17:07:54;1.10;80.80
76537;DHT22;65381;51.254;15.592;2023-02-27T17:10:23;1.00;80.80
76537;DHT22;65381;51.254;15.592;2023-02-27T17:12:53;1.00;80.90
76537;DHT22;65381;51.254;15.592;2023-02-27T17:15:24;1.00;80.80
76537;DHT22;65381;51.254;15.592;2023-02-27T17:17:55;1.00;80.80
76537;DHT22;65381;51.254;15.592;2023-02-27T17:20:24;1.00;80.70
76537;DHT22;65381;51.254;15.592;2023-02-27T17:22:58;0.90;80.70
76537;DHT22;65381;51.254;15.592;2023-02-27T17:25:26;0.80;80.70
76537;DHT22;65381;51.254;15.592;2023-02-27T17:27:56;0.80;80.70
76537;DHT22;65381;51.254;15.592;2023-02-27T17:30:24;0.80;80.80
76537;DHT22;65381;51.254;15.592;2023-02-27T17:32:54;0.70;80.70
76537;DHT22;65381;51.254;15.592;2023-02-27T17:35:27;0.60;80.70
76537;DHT22;65381;51.254;15.592;2023-02-27T17:37:58;0.60;80.70
76537;DHT22;65381;51.254;15.592;2023-02-27T17:40:26;0.60;80.80
76537;DHT22;65381;51.254;15.592;2023-02-27T17:42:56;0.60;80.70
76537;DHT22;65381;51.254;15.592;2023-02-27T17:45:25;0.60;80.70
76537;DHT22;65381;51.254;15.592;2023-02-27T17:47:56;0.60;80.70
76537;DHT22;65381;51.254;15.592;2023-02-27T17:50:25;0.60;80.70
76537;DHT22;65381;51.254;15.592;2023-02-27T17:52:55;0.60;80.70
76537;DHT22;65381;51.254;15.592;2023-02-27T17:55:27;0.60;80.70
76537;DHT22;65381;51.254;15.592;2023-02-27T17:57:57;0.50;80.70
76537;DHT22;65381;51.254;15.592;2023-02-27T18:00:26;0.50;80.60
76537;DHT22;65381;51.254;15.592;2023-02-27T18:02:56;0.50;80.50
76537;DHT22;65381;51.254;15.592;2023-02-27T18:05:25;0.50;80.60
76537;DHT22;65381;51.254;15.592;2023-02-27T18:07:56;0.50;80.50
76537;DHT22;65381;51.254;15.592;2023-02-27T18:10:27;0.50;80.50
76537;DHT22;65381;51.254;15.592;2023-02-27T18:13:03;0.50;80.40
76537;DHT22;65381;51.254;15.592;2023-02-27T18:15:33;0.50;80.40
76537;DHT22;65381;51.254;15.592;2023-02-27T18:18:04;0.50;80.30
76537;DHT22;65381;51.254;15.592;2023-02-27T18:20:34;0.50;80.40
76537;DHT22;65381;51.254;15.592;2023-02-27T18:23:06;0.50;80.40
76537;DHT22;65381;51.254;15.592;2023-02-27T18:25:40;0.50;80.40
76537;DHT22;65381;51.254;15.592;2023-02-27T18:28:10;0.60;80.40
76537;DHT22;65381;51.254;15.592;2023-02-27T18:30:40;0.50;80.40
76537;DHT22;65381;51.254;15.592;2023-02-27T18:33:12;0.50;80.50
76537;DHT22;65381;51.254;15.592;2023-02-27T18:35:43;0.50;80.50
76537;DHT22;65381;51.254;15.592;2023-02-27T18:38:15;0.50;80.50
76537;DHT22;65381;51.254;15.592;2023-02-27T18:40:44;0.50;80.60
76537;DHT22;65381;51.254;15.592;2023-02-27T18:43:18;0.50;80.60
76537;DHT22;65381;51.254;15.592;2023-02-27T18:45:50;0.50;80.50
76537;DHT22;65381;51.254;15.592;2023-02-27T18:48:21;0.50;80.50
76537;DHT22;65381;51.254;15.592;2023-02-27T18:51:01;0.50;80.50
76537;DHT22;65381;51.254;15.592;2023-02-27T18:53:34;0.50;80.40